Time;durP1;ratioP1;P1;durP2;ratioP2;P2;SDS_P1;SDS_P2;PMS_P1;PMS_P2;Temp;Humidity;BMP_temperature;BMP_pressure;BME280_temperature;BME280_humidity;BME280_pressure;Samples;Min_cycle;Max_cycle;Signal;HPM_P1;HPM_P2
2023/12/16 00:00:21;;;;;;;25.88;9.65;;;;;;;7.79;100.00;102737.56;5163707;28;20383;-75
2023/12/16 00:02:51;;;;;;;23.45;8.35;;;;;;;7.78;100.00;102747.94;5161186;28;20038;-74
2023/12/16 00:05:22;;;;;;;26.30;9.60;;;;;;;7.87;100.00;102754.13;5155779;28;20026;-74
2023/12/16 00:07:52;;;;;;;25.10;8.68;;;;;;;7.75;100.00;102746.22;5153708;28;20046;-75
2023/12/16 00:10:22;;;;;;;32.72;9.38;;;;;;;7.87;100.00;102755.88;5147217;28;20038;-75
2023/12/16 00:12:53;;;;;;;27.15;8.95;;;;;;;7.85;100.00;102745.44;5162690;28;20077;-75
2023/12/16 00:15:23;;;;;;;27.20;8.45;;;;;;;7.90;100.00;102737.69;5167416;28;20030;-75
2023/12/16 00:17:53;;;;;;;33.45;9.57;;;;;;;7.79;100.00;102741.88;5148047;28;20026;-75
2023/12/16 00:20:24;;;;;;;27.98;8.95;;;;;;;7.78;100.00;102732.34;5158462;28;20057;-73
2023/12/16 00:22:54;;;;;;;30.50;9.05;;;;;;;7.76;100.00;102727.13;5138770;28;20080;-75
2023/12/16 00:25:24;;;;;;;33.55;9.40;;;;;;;7.75;100.00;102730.59;5146567;28;20053;-74
2023/12/16 00:27:54;;;;;;;24.92;8.57;;;;;;;7.75;100.00;102735.81;5157300;28;20037;-75
2023/12/16 00:30:25;;;;;;;29.35;8.85;;;;;;;7.71;100.00;102720.97;5164451;28;20503;-75
2023/12/16 00:32:55;;;;;;;27.95;9.13;;;;;;;7.74;100.00;102731.41;5155493;28;20061;-75
2023/12/16 00:35:26;;;;;;;24.58;8.85;;;;;;;7.69;100.00;102725.31;5168912;28;20080;-74
2023/12/16 00:37:56;;;;;;;28.00;9.43;;;;;;;7.70;100.00;102728.78;5168847;28;20029;-74
2023/12/16 00:40:26;;;;;;;30.27;8.95;;;;;;;7.70;100.00;102734.00;5172381;28;20077;-75
2023/12/16 00:42:56;;;;;;;27.95;8.90;;;;;;;7.67;100.00;102734.81;5157273;28;20036;-75
2023/12/16 00:45:27;;;;;;;27.92;9.02;;;;;;;7.67;100.00;102741.78;5168232;28;20066;-75
2023/12/16 00:47:57;;;;;;;22.73;8.52;;;;;;;7.66;100.00;102748.69;5171997;28;20467;-75
2023/12/16 00:50:27;;;;;;;28.10;9.23;;;;;;;7.68;100.00;102741.78;5167437;28;20025;-75
2023/12/16 00:52:58;;;;;;;26.88;9.02;;;;;;;7.72;100.00;102748.75;5168530;28;20220;-75
2023/12/16 00:55:28;;;;;;;25.42;8.55;;;;;;;7.76;100.00;102732.34;5171606;28;20026;-74
2023/12/16 00:57:58;;;;;;;23.38;8.80;;;;;;;7.66;100.00;102733.09;5158271;28;20150;-74
2023/12/16 01:00:29;;;;;;;24.90;9.02;;;;;;;7.63;100.00;102721.75;5167019;28;20034;-75
2023/12/16 01:02:59;;;;;;;27.85;8.88;;;;;;;7.65;100.00;102731.34;5165848;28;20030;-75
2023/12/16 01:05:30;;;;;;;24.77;9.20;;;;;;;7.66;100.00;102735.69;5166212;28;20058;-75
2023/12/16 01:08:00;;;;;;;28.90;9.52;;;;;;;7.54;100.00;102727.75;5170358;28;20034;-74
2023/12/16 01:10:31;;;;;;;27.92;9.50;;;;;;;7.57;100.00;102737.31;5160772;28;20467;-74
2023/12/16 01:13:01;;;;;;;25.13;8.88;;;;;;;7.56;100.00;102733.81;5149755;28;20030;-75
2023/12/16 01:15:31;;;;;;;22.85;8.77;;;;;;;7.45;100.00;102722.44;5165325;28;20030;-74
2023/12/16 01:18:01;;;;;;;29.27;9.65;;;;;;;7.50;100.00;102714.69;5144023;28;20395;-75
2023/12/16 01:20:32;;;;;;;23.30;9.15;;;;;;;7.42;100.00;102701.59;5158808;28;20022;-76
2023/12/16 01:23:02;;;;;;;27.75;9.18;;;;;;;7.42;100.00;102701.59;5166686;28;20042;-75
2023/12/16 01:25:32;;;;;;;29.95;10.48;;;;;;;7.49;100.00;102706.00;5168031;28;20399;-75
2023/12/16 01:28:03;;;;;;;26.27;8.48;;;;;;;7.44;100.00;102725.91;5154717;28;20038;-75
2023/12/16 01:30:33;;;;;;;25.23;8.88;;;;;;;7.44;100.00;102736.31;5172041;28;20033;-75
2023/12/16 01:33:03;;;;;;;30.90;9.75;;;;;;;7.44;100.00;102730.22;5164895;28;20057;-74
2023/12/16 01:35:34;;;;;;;24.42;9.18;;;;;;;7.44;100.00;102738.91;5166062;28;20026;-75
2023/12/16 01:38:04;;;;;;;21.75;8.60;;;;;;;7.44;100.00;102725.91;5168067;28;20494;-74
2023/12/16 01:40:34;;;;;;;29.40;9.07;;;;;;;7.51;100.00;102713.84;5164105;28;20022;-74
2023/12/16 01:43:05;;;;;;;31.88;8.75;;;;;;;7.59;100.00;102722.59;5155221;28;20181;-74
2023/12/16 01:45:35;;;;;;;29.25;9.40;;;;;;;7.51;100.00;102717.31;5171800;28;20081;-75
2023/12/16 01:48:06;;;;;;;27.88;9.25;;;;;;;7.52;100.00;102721.66;5171418;28;20543;-74
2023/12/16 01:50:37;;;;;;;24.15;8.70;;;;;;;7.51;100.00;102717.31;5168678;28;20501;-75
2023/12/16 01:53:07;;;;;;;26.38;8.98;;;;;;;7.45;100.00;102727.66;5168842;28;20482;-73
2023/12/16 01:55:38;;;;;;;28.67;9.40;;;;;;;7.52;100.00;102732.06;5164646;28;20026;-75
2023/12/16 01:58:08;;;;;;;33.40;9.38;;;;;;;7.50;100.00;102731.16;5155119;28;20088;-72
2023/12/16 02:00:40;;;;;;;25.02;8.32;;;;;;;7.49;100.00;102726.81;5170961;28;20026;-75
2023/12/16 02:03:14;;;;;;;24.77;8.27;;;;;;;7.47;100.00;102725.94;5163915;28;20022;-75
2023/12/16 02:05:44;;;;;;;27.60;8.18;;;;;;;7.42;100.00;102727.63;5168807;28;20040;-75
2023/12/16 02:08:15;;;;;;;24.23;7.50;;;;;;;7.36;100.00;102740.53;5169069;28;20018;-74
2023/12/16 02:10:45;;;;;;;20.23;6.93;;;;;;;7.43;100.00;102731.06;5167797;28;20050;-74
2023/12/16 02:13:18;;;;;;;32.88;8.30;;;;;;;7.33;100.00;102737.03;5156735;28;20117;-74
2023/12/16 02:15:48;;;;;;;25.20;7.22;;;;;;;7.43;100.00;102734.56;5153931;28;20034;-75
2023/12/16 02:18:19;;;;;;;26.08;7.28;;;;;;;7.36;100.00;102740.53;5160984;28;20065;-75
2023/12/16 02:20:50;;;;;;;25.80;7.25;;;;;;;7.45;100.00;102743.25;5162190;28;20528;-75
2023/12/16 02:23:20;;;;;;;25.77;6.65;;;;;;;7.38;100.00;102740.56;5166670;28;20096;-75
2023/12/16 02:25:50;;;;;;;23.10;6.88;;;;;;;7.39;100.00;102740.56;5164511;28;20083;-75
2023/12/16 02:28:21;;;;;;;19.83;6.88;;;;;;;7.39;100.00;102737.97;5154123;28;20032;-75
2023/12/16 02:30:51;;;;;;;21.05;6.63;;;;;;;7.35;100.00;102730.97;5165829;28;20026;-75
2023/12/16 02:33:21;;;;;;;21.98;6.85;;;;;;;7.28;100.00;102738.69;5145956;28;20810;-75
2023/12/16 02:35:51;;;;;;;29.90;7.25;;;;;;;7.27;100.00;102731.75;5168134;28;20121;-75
2023/12/16 02:38:22;;;;;;;22.52;6.43;;;;;;;7.23;100.00;102740.38;5136292;28;20053;-75
2023/12/16 02:40:53;;;;;;;17.55;6.00;;;;;;;7.25;100.00;102737.81;5156707;28;20502;-75
2023/12/16 02:43:23;;;;;;;18.77;6.70;;;;;;;7.32;100.00;102735.31;5151451;28;20030;-75
2023/12/16 02:45:53;;;;;;;24.92;7.07;;;;;;;7.28;100.00;102736.97;5151431;28;20033;-74
2023/12/16 02:48:24;;;;;;;20.00;5.80;;;;;;;7.28;100.00;102736.97;5165444;28;20101;-75
2023/12/16 02:50:54;;;;;;;19.70;6.20;;;;;;;7.28;100.00;102734.38;5166328;28;20018;-74
2023/12/16 02:53:24;;;;;;;16.33;5.70;;;;;;;7.25;100.00;102743.88;5164407;28;20037;-75
2023/12/16 02:55:54;;;;;;;26.08;6.50;;;;;;;7.26;100.00;102750.81;5168758;28;20087;-75
2023/12/16 02:58:25;;;;;;;18.63;6.22;;;;;;;7.33;100.00;102752.66;5153081;28;20559;-75
2023/12/16 03:00:55;;;;;;;20.00;5.25;;;;;;;7.38;100.00;102754.44;5143913;28;20509;-75
2023/12/16 03:03:25;;;;;;;21.73;5.28;;;;;;;7.38;100.00;102753.56;5162866;28;20122;-74
2023/12/16 03:05:56;;;;;;;17.05;5.60;;;;;;;7.34;100.00;102755.25;5169506;28;20048;-75
2023/12/16 03:08:26;;;;;;;26.20;6.60;;;;;;;7.39;100.00;102752.72;5164792;28;20041;-75
2023/12/16 03:10:56;;;;;;;18.10;5.20;;;;;;;7.43;100.00;102750.19;5165822;28;20025;-74
2023/12/16 03:13:26;;;;;;;17.92;5.28;;;;;;;7.45;100.00;102753.66;5169664;28;20527;-75
2023/12/16 03:15:57;;;;;;;18.40;5.55;;;;;;;7.50;100.00;102756.34;5146379;28;20040;-73
2023/12/16 03:18:27;;;;;;;17.52;5.05;;;;;;;7.46;100.00;102750.22;5155057;28;20022;-75
2023/12/16 03:20:57;;;;;;;14.85;4.55;;;;;;;7.49;100.00;102755.44;5166857;28;20021;-75
2023/12/16 03:23:28;;;;;;;16.75;4.35;;;;;;;7.43;100.00;102763.19;5161006;28;20040;-75
2023/12/16 03:25:58;;;;;;;17.75;4.88;;;;;;;7.47;100.00;102758.88;5171492;28;20487;-74
2023/12/16 03:28:28;;;;;;;18.08;4.25;;;;;;;7.54;100.00;102758.97;5137659;28;20025;-75
2023/12/16 03:30:59;;;;;;;14.15;3.95;;;;;;;7.57;100.00;102746.00;5137557;28;20026;-75
2023/12/16 03:33:29;;;;;;;11.52;3.38;;;;;;;7.57;100.00;102746.00;5162178;28;20106;-75
2023/12/16 03:35:59;;;;;;;15.48;4.40;;;;;;;7.56;100.00;102749.44;5163346;28;20526;-76
2023/12/16 03:38:31;;;;;;;11.82;3.33;;;;;;;7.56;100.00;102745.97;5163920;28;20483;-74
2023/12/16 03:41:01;;;;;;;13.77;3.53;;;;;;;7.57;100.00;102747.72;5172398;28;20109;-75
2023/12/16 03:43:32;;;;;;;11.70;3.42;;;;;;;7.55;100.00;102747.69;5163148;28;20252;-75
2023/12/16 03:46:02;;;;;;;14.00;3.70;;;;;;;7.59;100.00;102752.09;5168159;28;20360;-73
2023/12/16 03:48:32;;;;;;;10.35;3.28;;;;;;;7.55;100.00;102750.28;5155181;28;20037;-74
2023/12/16 03:51:03;;;;;;;11.55;3.20;;;;;;;7.59;100.00;102746.00;5149903;28;20331;-74
2023/12/16 03:53:34;;;;;;;10.70;3.17;;;;;;;7.59;100.00;102752.09;5148340;28;20398;-74
2023/12/16 03:56:04;;;;;;;9.35;3.17;;;;;;;7.59;100.00;102756.41;5151679;28;20033;-74
2023/12/16 03:58:34;;;;;;;11.23;2.88;;;;;;;7.57;100.00;102748.63;5135094;28;20058;-75
2023/12/16 04:01:05;;;;;;;13.32;3.25;;;;;;;7.59;100.00;102752.09;5174823;28;20104;-74
2023/12/16 04:03:35;;;;;;;12.02;2.85;;;;;;;7.58;100.00;102758.16;5149377;28;20058;-75
2023/12/16 04:06:12;;;;;;;14.55;2.70;;;;;;;7.54;100.00;102758.97;5167084;28;20025;-74
2023/12/16 04:08:42;;;;;;;12.15;3.08;;;;;;;7.62;100.00;102772.06;5167281;28;20499;-75
2023/12/16 04:11:13;;;;;;;16.48;4.00;;;;;;;7.62;100.00;102767.75;5168442;28;20069;-74
2023/12/16 04:13:43;;;;;;;16.13;3.13;;;;;;;7.58;100.00;102759.88;5147805;28;20033;-74
2023/12/16 04:16:13;;;;;;;8.57;2.47;;;;;;;7.51;100.00;102758.06;5171574;28;20049;-74
2023/12/16 04:18:44;;;;;;;10.40;2.30;;;;;;;7.48;100.00;102764.09;5150137;28;20511;-74
2023/12/16 04:21:14;;;;;;;11.35;2.58;;;;;;;7.59;100.00;102770.31;5166148;28;20403;-75
2023/12/16 04:23:45;;;;;;;11.90;2.67;;;;;;;7.57;99.91;102773.75;5173611;28;20034;-74
2023/12/16 04:26:15;;;;;;;10.48;2.58;;;;;;;7.55;100.00;102765.91;5170485;28;20038;-75
2023/12/16 04:28:45;;;;;;;12.00;2.47;;;;;;;7.63;99.27;102768.59;5148678;28;20522;-75
2023/12/16 04:31:17;;;;;;;8.68;2.20;;;;;;;7.55;99.50;102760.72;5165351;28;20042;-74
2023/12/16 04:33:48;;;;;;;9.20;2.60;;;;;;;7.59;99.59;102775.53;5164009;28;20514;-75
2023/12/16 04:36:18;;;;;;;6.78;2.50;;;;;;;7.52;100.00;102778.88;5166875;28;20032;-74
2023/12/16 04:38:48;;;;;;;8.95;2.03;;;;;;;7.46;100.00;102776.22;5147719;28;20038;-75
2023/12/16 04:41:19;;;;;;;9.57;2.53;;;;;;;7.53;100.00;102766.78;5159364;28;20076;-75
2023/12/16 04:43:50;;;;;;;11.90;2.53;;;;;;;7.51;100.00;102779.75;5149859;28;20485;-75
2023/12/16 04:46:20;;;;;;;9.25;2.45;;;;;;;7.51;99.37;102784.09;5168126;28;20396;-75
2023/12/16 04:48:51;;;;;;;12.23;2.40;;;;;;;7.55;99.50;102788.47;5164642;28;20056;-75
2023/12/16 04:51:21;;;;;;;13.32;2.45;;;;;;;7.50;99.81;102788.41;5166699;28;20087;-75
2023/12/16 04:53:52;;;;;;;10.18;2.35;;;;;;;7.49;99.37;102788.41;5150791;28;20029;-75
2023/12/16 04:56:22;;;;;;;10.38;2.80;;;;;;;7.53;99.51;102800.59;5148103;28;20087;-75
2023/12/16 04:58:53;;;;;;;12.13;2.40;;;;;;;7.48;99.29;102792.72;5155870;28;20033;-75
2023/12/16 05:01:23;;;;;;;13.88;2.47;;;;;;;7.50;99.59;102791.00;5164065;28;20044;-75
2023/12/16 05:03:54;;;;;;;11.43;2.38;;;;;;;7.55;99.52;102793.66;5163511;28;20037;-74
2023/12/16 05:06:25;;;;;;;8.68;2.20;;;;;;;7.54;99.32;102797.13;5165070;28;20057;-74
2023/12/16 05:08:55;;;;;;;11.25;2.22;;;;;;;7.53;99.24;102798.84;5171087;28;20434;-75
2023/12/16 05:11:26;;;;;;;11.65;2.30;;;;;;;7.49;99.35;102804.88;5157486;28;20058;-74
2023/12/16 05:13:56;;;;;;;10.32;1.67;;;;;;;7.54;98.81;102800.59;5147818;28;20042;-74
2023/12/16 05:16:27;;;;;;;13.13;2.22;;;;;;;7.57;98.31;102813.66;5151355;28;20050;-74
2023/12/16 05:19:03;;;;;;;12.02;2.33;;;;;;;7.53;99.05;102811.84;5168484;28;20036;-75
2023/12/16 05:21:33;;;;;;;9.82;2.35;;;;;;;7.54;98.43;102808.41;5164506;28;20042;-74
2023/12/16 05:24:03;;;;;;;12.35;2.40;;;;;;;7.50;98.80;102813.56;5171658;28;20215;-74
2023/12/16 05:26:34;;;;;;;18.55;2.65;;;;;;;7.49;99.09;102817.88;5149780;28;20124;-74
2023/12/16 05:29:04;;;;;;;11.00;2.10;;;;;;;7.43;99.12;102817.81;5171146;28;20029;-75
2023/12/16 05:31:34;;;;;;;17.85;2.25;;;;;;;7.37;99.48;102817.72;5170782;28;20026;-75
2023/12/16 05:34:05;;;;;;;11.75;2.65;;;;;;;7.39;99.19;102821.19;5170218;28;20017;-75
2023/12/16 05:36:35;;;;;;;9.80;1.88;;;;;;;7.39;99.49;102831.59;5168511;28;20026;-74
2023/12/16 05:39:05;;;;;;;10.77;2.20;;;;;;;7.36;100.00;102831.56;5168031;28;20076;-75
2023/12/16 05:41:36;;;;;;;8.35;1.80;;;;;;;7.42;99.64;102836.88;5166589;28;20634;-75
2023/12/16 05:44:06;;;;;;;6.78;2.15;;;;;;;7.44;99.80;102842.97;5169702;28;20029;-74
2023/12/16 05:46:36;;;;;;;8.20;2.13;;;;;;;7.37;100.00;102835.91;5160977;28;20434;-74
2023/12/16 05:49:06;;;;;;;9.02;2.10;;;;;;;7.34;99.21;102833.28;5165171;28;20025;-74
2023/12/16 05:51:41;;;;;;;10.45;1.90;;;;;;;7.36;99.06;102831.56;5170117;28;20069;-74
2023/12/16 05:54:11;;;;;;;11.23;2.00;;;;;;;7.36;99.00;102831.56;5170038;28;20072;-74
2023/12/16 05:56:41;;;;;;;8.27;2.10;;;;;;;7.36;99.80;102833.31;5152993;28;20472;-74
2023/12/16 05:59:12;;;;;;;9.40;2.10;;;;;;;7.32;99.74;102824.59;5144003;28;20045;-74
2023/12/16 06:01:42;;;;;;;10.45;2.38;;;;;;;7.38;99.74;102839.41;5169310;28;20056;-75
2023/12/16 06:04:14;;;;;;;14.20;2.17;;;;;;;7.38;98.46;102832.47;5164677;28;20128;-74
2023/12/16 06:06:44;;;;;;;14.35;2.33;;;;;;;7.39;99.75;102826.41;5149991;28;20145;-77
2023/12/16 06:09:16;;;;;;;11.80;2.17;;;;;;;7.34;100.00;102832.44;5168736;28;20101;-76
2023/12/16 06:11:46;;;;;;;12.57;2.35;;;;;;;7.33;100.00;102841.94;5167777;28;20065;-77
2023/12/16 06:14:16;;;;;;;14.10;2.22;;;;;;;7.31;100.00;102841.06;5168932;28;20022;-76
2023/12/16 06:16:47;;;;;;;11.82;2.42;;;;;;;7.30;100.00;102839.31;5168894;28;20129;-76
2023/12/16 06:19:17;;;;;;;13.85;3.00;;;;;;;7.31;100.00;102833.25;5168413;28;20033;-77
2023/12/16 06:21:47;;;;;;;12.65;2.72;;;;;;;7.35;99.19;102835.03;5153299;28;20033;-76
2023/12/16 06:24:18;;;;;;;10.00;1.98;;;;;;;7.36;99.83;102836.78;5166769;28;20033;-76
2023/12/16 06:26:48;;;;;;;15.52;2.22;;;;;;;7.41;98.22;102840.34;5167557;28;20030;-76
2023/12/16 06:29:18;;;;;;;10.45;2.10;;;;;;;7.41;98.90;102839.44;5170200;28;20129;-76
2023/12/16 06:31:49;;;;;;;11.75;1.95;;;;;;;7.46;98.75;102823.06;5167352;28;20041;-77
2023/12/16 06:34:19;;;;;;;13.05;2.63;;;;;;;7.43;98.26;102828.22;5168923;28;20027;-76
2023/12/16 06:36:50;;;;;;;18.88;2.20;;;;;;;7.41;98.74;102845.53;5152229;28;20380;-76
2023/12/16 06:39:20;;;;;;;11.88;2.53;;;;;;;7.43;99.00;102848.16;5130894;28;20546;-76
2023/12/16 06:41:51;;;;;;;14.77;2.17;;;;;;;7.36;98.91;102847.19;5152904;28;20056;-77
2023/12/16 06:44:21;;;;;;;14.32;2.55;;;;;;;7.38;98.56;102842.88;5148645;28;20353;-76
2023/12/16 06:46:51;;;;;;;10.80;2.15;;;;;;;7.38;99.47;102836.81;5162656;28;20037;-76
2023/12/16 06:49:21;;;;;;;11.13;2.40;;;;;;;7.33;99.89;102843.69;5143379;28;20246;-76
2023/12/16 06:51:52;;;;;;;13.25;2.35;;;;;;;7.36;99.77;102846.31;5163429;28;20029;-77
2023/12/16 06:54:22;;;;;;;14.23;2.42;;;;;;;7.34;99.98;102854.09;5161239;28;20539;-74
2023/12/16 06:56:52;;;;;;;11.63;2.60;;;;;;;7.39;99.17;102847.22;5165710;28;20465;-74
2023/12/16 06:59:22;;;;;;;13.13;2.92;;;;;;;7.33;99.47;102847.16;5166975;28;20038;-74
2023/12/16 07:01:53;;;;;;;13.68;2.78;;;;;;;7.36;99.50;102844.59;5164895;28;20036;-74
2023/12/16 07:04:24;;;;;;;15.63;2.97;;;;;;;7.38;99.63;102839.41;5169660;28;20400;-74
2023/12/16 07:06:54;;;;;;;13.88;3.00;;;;;;;7.35;99.01;102839.38;5172721;28;20032;-74
2023/12/16 07:09:25;;;;;;;10.60;2.40;;;;;;;7.37;98.96;102843.72;5145427;28;20030;-71
2023/12/16 07:11:55;;;;;;;12.40;2.30;;;;;;;7.36;100.00;102847.19;5167054;28;20026;-74
2023/12/16 07:14:27;;;;;;;12.20;2.70;;;;;;;7.32;100.00;102845.41;5168875;28;20030;-72
2023/12/16 07:16:58;;;;;;;13.75;2.42;;;;;;;7.33;100.00;102843.69;5152800;28;20022;-74
2023/12/16 07:22:18;;;;;;;12.95;2.53;;;;;;;7.33;100.00;102856.69;5882277;22;20578;-76
2023/12/16 07:24:49;;;;;;;10.25;2.70;;;;;;;7.29;100.00;102847.97;5152400;28;20022;-76
2023/12/16 07:27:19;;;;;;;12.32;2.92;;;;;;;7.30;100.00;102854.91;5159870;28;20046;-76
2023/12/16 07:29:50;;;;;;;11.38;2.80;;;;;;;7.25;100.00;102849.63;5155456;28;20029;-76
2023/12/16 07:32:20;;;;;;;11.43;2.40;;;;;;;7.27;100.00;102848.78;5149833;28;20030;-76
2023/12/16 07:34:51;;;;;;;12.05;3.38;;;;;;;7.29;100.00;102853.16;5145628;28;20029;-76
2023/12/16 07:37:21;;;;;;;12.82;2.50;;;;;;;7.37;100.00;102853.28;5140641;28;20084;-76
2023/12/16 07:39:51;;;;;;;10.15;2.78;;;;;;;7.40;100.00;102851.59;5135535;28;20072;-76
2023/12/16 07:42:21;;;;;;;15.02;2.65;;;;;;;7.32;100.00;102844.53;5140209;28;20037;-76
2023/12/16 07:44:52;;;;;;;13.77;3.33;;;;;;;7.30;99.39;102849.72;5145679;28;20137;-76
2023/12/16 07:47:22;;;;;;;11.20;2.72;;;;;;;7.37;99.95;102843.72;5142127;28;20058;-76
2023/12/16 07:49:52;;;;;;;11.80;2.85;;;;;;;7.45;98.84;102852.53;5150503;28;22358;-76
2023/12/16 07:52:23;;;;;;;14.02;3.70;;;;;;;7.40;98.86;102853.31;5133846;28;20041;-76
2023/12/16 07:54:53;;;;;;;13.27;3.28;;;;;;;7.39;98.71;102847.22;5146050;28;20057;-77
2023/12/16 07:57:23;;;;;;;14.15;3.50;;;;;;;7.44;98.37;102850.78;5142510;28;20030;-76
2023/12/16 07:59:54;;;;;;;9.73;2.38;;;;;;;7.45;98.01;102855.13;5139918;28;20034;-76
2023/12/16 08:02:24;;;;;;;13.13;2.83;;;;;;;7.51;97.32;102841.34;5136190;28;20142;-76
2023/12/16 08:04:54;;;;;;;14.88;3.45;;;;;;;7.57;96.49;102844.00;5139382;28;20387;-76
2023/12/16 08:07:25;;;;;;;14.25;2.60;;;;;;;7.56;96.96;102845.72;5135664;28;20114;-76
2023/12/16 08:09:55;;;;;;;12.55;2.78;;;;;;;7.51;97.15;102838.72;5127914;28;20101;-76
2023/12/16 08:12:26;;;;;;;16.05;2.90;;;;;;;7.57;96.37;102834.47;5134212;28;20424;-76
2023/12/16 08:14:56;;;;;;;22.95;3.45;;;;;;;7.50;97.02;102827.44;5125743;28;20023;-76
2023/12/16 08:17:27;;;;;;;7.10;2.15;;;;;;;7.58;96.86;102831.03;5126838;28;20476;-76
2023/12/16 08:19:57;;;;;;;10.55;2.72;;;;;;;7.62;96.50;102830.19;5131114;28;20057;-76
2023/12/16 08:22:28;;;;;;;12.43;2.65;;;;;;;7.66;95.29;102828.53;5134300;28;20023;-75
2023/12/16 08:24:58;;;;;;;14.75;2.58;;;;;;;7.69;94.83;102826.81;5130665;28;20035;-76
2023/12/16 08:27:28;;;;;;;7.53;2.53;;;;;;;7.72;94.64;102826.84;5128766;28;20094;-75
2023/12/16 08:29:58;;;;;;;8.93;2.25;;;;;;;7.68;94.60;102832.88;5126970;28;20038;-76
2023/12/16 08:32:29;;;;;;;14.93;2.30;;;;;;;7.61;94.76;102838.88;5136755;28;20035;-74
2023/12/16 08:34:59;;;;;;;20.95;2.58;;;;;;;7.61;94.13;102832.78;5134109;28;20038;-75
2023/12/16 08:37:29;;;;;;;13.55;2.20;;;;;;;7.58;94.27;102838.84;5123795;28;20038;-74
2023/12/16 08:39:59;;;;;;;13.05;2.33;;;;;;;7.66;94.08;102842.38;5129800;28;20162;-76
2023/12/16 08:42:30;;;;;;;13.82;2.53;;;;;;;7.59;93.84;102847.50;5128293;28;20034;-74
2023/12/16 08:45:00;;;;;;;12.68;2.72;;;;;;;7.36;95.99;102841.97;5131761;28;20023;-76
2023/12/16 08:47:30;;;;;;;14.15;2.70;;;;;;;7.28;97.64;102847.06;5139840;28;20031;-75
2023/12/16 08:50:02;;;;;;;12.25;2.45;;;;;;;7.20;97.57;102844.34;5136425;28;20047;-76
2023/12/16 08:52:33;;;;;;;12.27;3.28;;;;;;;7.28;97.56;102841.03;5131513;28;20600;-76
2023/12/16 08:55:04;;;;;;;11.73;2.95;;;;;;;7.34;97.46;102841.09;5132859;28;20112;-76
2023/12/16 08:57:34;;;;;;;16.73;2.70;;;;;;;7.55;97.35;102828.34;5134077;28;20088;-76
2023/12/16 09:00:05;;;;;;;10.05;2.30;;;;;;;7.59;96.33;102835.38;5144761;28;20031;-76
2023/12/16 09:02:36;;;;;;;14.60;2.25;;;;;;;7.72;95.66;102845.06;5137283;28;20038;-75
2023/12/16 09:05:07;;;;;;;13.07;2.90;;;;;;;7.83;94.98;102846.06;5135504;28;20039;-75
2023/12/16 09:07:37;;;;;;;11.98;2.40;;;;;;;8.00;93.69;102844.53;5140327;28;20505;-76
2023/12/16 09:10:08;;;;;;;11.00;2.35;;;;;;;8.01;93.18;102848.03;5139282;28;20046;-76
2023/12/16 09:12:38;;;;;;;8.70;2.30;;;;;;;8.24;92.59;102833.53;5132370;28;20030;-75
2023/12/16 09:15:09;;;;;;;13.07;2.55;;;;;;;8.40;91.78;102835.44;5133004;28;20088;-75
2023/12/16 09:17:39;;;;;;;18.27;2.53;;;;;;;8.39;91.02;102846.72;5138366;28;20400;-76
2023/12/16 09:20:10;;;;;;;12.25;2.10;;;;;;;8.52;90.62;102856.41;5138973;28;20699;-76
2023/12/16 09:22:40;;;;;;;14.82;3.55;;;;;;;8.50;90.84;102843.34;5135224;28;20031;-76
2023/12/16 09:25:10;;;;;;;12.90;2.70;;;;;;;8.59;89.55;102848.63;5137838;28;20109;-76
2023/12/16 09:27:43;;;;;;;11.38;2.25;;;;;;;8.78;89.39;102853.16;5138700;28;20484;-76
2023/12/16 09:30:13;;;;;;;18.38;2.67;;;;;;;8.85;88.15;102836.69;5134205;28;20039;-76
2023/12/16 09:32:47;;;;;;;13.73;3.03;;;;;;;9.00;88.27;102835.91;5132103;28;20494;-75
2023/12/16 09:35:17;;;;;;;7.15;2.20;;;;;;;8.92;86.81;102833.25;5136779;28;20081;-75
2023/12/16 09:37:49;;;;;;;11.95;2.47;;;;;;;8.93;86.99;102819.34;5137626;28;20503;-75
2023/12/16 09:40:19;;;;;;;14.77;3.17;;;;;;;8.98;87.38;102816.78;5129970;28;20104;-75
2023/12/16 09:42:53;;;;;;;13.82;2.13;;;;;;;8.89;86.66;102820.19;5135027;28;20026;-73
2023/12/16 09:45:23;;;;;;;15.07;2.80;;;;;;;8.98;87.49;102808.97;5135296;28;20537;-76
2023/12/16 09:47:55;;;;;;;12.13;2.13;;;;;;;9.19;86.80;102802.16;5137719;28;20246;-76
2023/12/16 09:50:28;;;;;;;10.65;2.22;;;;;;;9.33;85.90;102800.50;5131484;28;20063;-75
2023/12/16 09:52:59;;;;;;;14.10;2.42;;;;;;;9.30;85.43;102797.88;5125876;28;20031;-75
2023/12/16 09:55:29;;;;;;;9.85;2.05;;;;;;;9.20;86.15;102796.06;5130571;28;20543;-75
2023/12/16 09:58:02;;;;;;;12.00;1.67;;;;;;;9.39;86.82;102808.34;5131043;28;20030;-76
2023/12/16 10:00:36;;;;;;;12.77;2.20;;;;;;;9.52;85.80;102812.75;5129593;28;20043;-76
2023/12/16 10:03:06;;;;;;;13.75;2.28;;;;;;;9.48;85.92;102816.22;5133052;28;20023;-76
2023/12/16 10:05:37;;;;;;;10.00;2.17;;;;;;;9.41;85.56;102814.44;5132340;28;20070;-76
2023/12/16 10:08:07;;;;;;;9.63;2.08;;;;;;;9.37;86.71;102807.47;5134343;28;20033;-76
2023/12/16 10:10:37;;;;;;;15.65;2.00;;;;;;;9.58;85.67;102820.59;5132199;28;20027;-76
2023/12/16 10:13:08;;;;;;;12.10;2.08;;;;;;;9.48;85.30;102811.00;5135235;28;20026;-76
2023/12/16 10:15:38;;;;;;;11.77;1.90;;;;;;;9.38;86.94;102803.97;5124235;28;20560;-76
2023/12/16 10:18:09;;;;;;;9.68;1.83;;;;;;;9.28;86.24;102797.84;5133480;28;20110;-76
2023/12/16 10:20:39;;;;;;;11.90;2.15;;;;;;;9.41;86.54;102791.81;5136022;28;20026;-76
2023/12/16 10:23:11;;;;;;;13.52;1.83;;;;;;;9.36;86.85;102784.84;5136959;28;20039;-76
2023/12/16 10:25:41;;;;;;;11.90;1.83;;;;;;;9.36;87.41;102775.28;5136452;28;20393;-76
2023/12/16 10:28:12;;;;;;;12.90;2.88;;;;;;;9.47;86.79;102778.78;5140282;28;20049;-76
2023/12/16 10:30:42;;;;;;;9.40;2.20;;;;;;;9.46;86.39;102773.59;5136588;28;20022;-75
2023/12/16 10:33:14;;;;;;;11.23;2.47;;;;;;;9.22;87.41;102776.06;5134777;28;20035;-76
2023/12/16 10:35:45;;;;;;;14.52;2.35;;;;;;;9.48;86.95;102769.25;5136155;28;20039;-75
2023/12/16 10:38:15;;;;;;;13.70;2.80;;;;;;;9.51;86.68;102770.09;5134245;28;20389;-76
2023/12/16 10:40:45;;;;;;;11.15;2.35;;;;;;;9.62;86.56;102775.38;5133378;28;20070;-76
2023/12/16 10:43:16;;;;;;;10.98;2.00;;;;;;;9.78;87.33;102764.09;5132440;28;20475;-76
2023/12/16 10:45:48;;;;;;;9.00;1.85;;;;;;;9.56;86.64;102751.84;5133903;28;20048;-76
2023/12/16 10:48:21;;;;;;;16.42;2.35;;;;;;;9.63;85.66;102751.03;5125912;28;20072;-76
2023/12/16 10:50:53;;;;;;;9.35;2.15;;;;;;;9.69;86.44;102753.63;5133617;28;20053;-76
2023/12/16 10:53:26;;;;;;;9.82;2.83;;;;;;;9.64;86.98;102760.59;5125687;28;20038;-76
2023/12/16 10:56:02;;;;;;;11.10;2.28;;;;;;;9.51;87.88;102753.59;5132316;28;20050;-76
2023/12/16 10:58:37;;;;;;;8.55;1.90;;;;;;;9.50;87.95;102754.44;5124593;28;20039;-76
2023/12/16 11:01:12;;;;;;;;;;;;;;;9.48;87.78;102756.19;5130710;28;20547;-75
2023/12/16 11:03:50;;;;;;;12.57;2.08;;;;;;;9.39;88.29;102736.16;5125096;28;19918;-74
2023/12/16 11:06:32;;;;;;;14.40;2.30;;;;;;;9.58;88.28;102734.44;5127515;28;20108;-76
2023/12/16 11:09:04;;;;;;;10.13;2.45;;;;;;;9.60;89.11;102730.09;5123464;28;20043;-76
2023/12/16 11:11:35;;;;;;;7.85;2.38;;;;;;;9.64;88.04;102729.25;5123937;28;20034;-74
2023/12/16 11:14:05;;;;;;;11.57;2.30;;;;;;;9.56;88.06;102724.03;5152233;28;20407;-75
2023/12/16 11:16:54;;;;;;;9.50;2.58;;;;;;;9.60;88.81;102717.03;5127414;28;20066;-75
2023/12/16 11:19:33;;;;;;;12.55;2.35;;;;;;;9.45;89.67;102714.41;5124837;28;20041;-76
2023/12/16 11:22:03;;;;;;;11.65;2.45;;;;;;;9.53;88.96;102710.06;5131336;28;20068;-76
2023/12/16 11:24:40;;;;;;;11.32;2.25;;;;;;;9.43;89.34;102701.34;5132057;28;20314;-76
2023/12/16 11:27:11;;;;;;;13.68;2.28;;;;;;;9.45;89.99;102696.16;5128148;28;20526;-76
2023/12/16 11:29:42;;;;;;;8.98;2.38;;;;;;;9.51;90.14;102690.94;5125950;28;20031;-75
2023/12/16 11:32:12;;;;;;;12.48;2.38;;;;;;;9.44;90.20;102694.38;5125612;28;20027;-76
2023/12/16 11:34:50;;;;;;;13.00;2.35;;;;;;;9.53;90.75;102687.47;5127958;28;20118;-74
2023/12/16 11:37:36;;;;;;;15.55;2.47;;;;;;;9.37;90.57;102685.69;5129322;28;20023;-76
2023/12/16 11:40:07;;;;;;;13.57;2.28;;;;;;;9.39;91.21;102685.66;5126585;28;20034;-76